Time;durP1;ratioP1;P1;durP2;ratioP2;P2;SDS_P1;SDS_P2;PMS_P1;PMS_P2;Temp;Humidity;BMP_temperature;BMP_pressure;BME280_temperature;BME280_humidity;BME280_pressure;Samples;Min_cycle;Max_cycle;Signal;HPM_P1;HPM_P2
2021/12/27 00:01:25;;;;;;;3.15;1.50;;;;;;;-1.49;45.49;98861.63;3350702;29;20128;-69
2021/12/27 00:03:07;;;;;;;2.88;1.90;;;;;;;-1.55;45.50;98870.81;3350520;29;20045;-70
2021/12/27 00:04:48;;;;;;;2.45;2.03;;;;;;;-1.57;45.64;98873.59;3343351;29;20052;-71
2021/12/27 00:06:30;;;;;;;3.15;1.88;;;;;;;-1.62;45.57;98872.34;3345457;29;20461;-70
2021/12/27 00:08:11;;;;;;;1.42;1.10;;;;;;;-1.67;45.58;98869.34;3349294;29;20501;-70
2021/12/27 00:09:51;;;;;;;3.00;1.50;;;;;;;-1.72;45.54;98861.09;3351626;29;20045;-72
2021/12/27 00:11:32;;;;;;;1.40;1.08;;;;;;;-1.76;46.00;98866.59;3350506;29;20109;-71
2021/12/27 00:13:13;;;;;;;1.95;1.80;;;;;;;-1.79;45.78;98869.44;3338496;29;20094;-71
2021/12/27 00:14:53;;;;;;;2.80;1.63;;;;;;;-1.81;45.95;98878.38;3344936;29;20113;-70
2021/12/27 00:16:34;;;;;;;2.35;1.50;;;;;;;-1.82;46.10;98881.97;3351349;29;20544;-68
2021/12/27 00:18:15;;;;;;;2.10;1.52;;;;;;;-1.86;45.60;98885.78;3349216;29;20041;-71
2021/12/27 00:19:56;;;;;;;3.15;1.60;;;;;;;-1.88;45.79;98888.56;3351605;29;20052;-69
2021/12/27 00:21:37;;;;;;;2.08;1.48;;;;;;;-1.89;46.00;98892.09;3350206;29;20045;-69
2021/12/27 00:23:18;;;;;;;1.75;1.65;;;;;;;-1.94;45.64;98891.69;3351135;29;20132;-70
2021/12/27 00:24:58;;;;;;;3.30;1.60;;;;;;;-1.94;46.09;98889.06;3348573;29;20531;-71
2021/12/27 00:26:39;;;;;;;2.92;1.50;;;;;;;-1.95;46.18;98897.88;3338380;29;20137;-70
2021/12/27 00:28:20;;;;;;;1.77;1.67;;;;;;;-1.97;45.92;98903.22;3339388;29;20175;-71
2021/12/27 00:30:04;;;;;;;2.78;1.48;;;;;;;-1.97;45.83;98907.63;3338933;29;20041;-70
2021/12/27 00:31:44;;;;;;;2.03;1.40;;;;;;;-1.97;46.33;98902.41;3338602;29;20049;-70
2021/12/27 00:33:26;;;;;;;2.88;1.75;;;;;;;-1.98;46.35;98906.00;3338379;29;20046;-69
2021/12/27 00:35:08;;;;;;;4.88;1.80;;;;;;;-2.01;46.23;98907.09;3338288;29;20071;-70
2021/12/27 00:36:48;;;;;;;1.52;1.30;;;;;;;-2.03;46.33;98895.94;3338179;29;20053;-70
2021/12/27 00:38:29;;;;;;;2.75;1.48;;;;;;;-2.02;46.33;98901.97;3339094;29;20042;-71
2021/12/27 00:40:11;;;;;;;2.70;1.92;;;;;;;-2.04;46.13;98901.28;3338295;29;20152;-70
2021/12/27 00:41:51;;;;;;;1.73;1.40;;;;;;;-2.05;46.13;98912.69;3338477;29;20065;-71
2021/12/27 00:43:32;;;;;;;2.45;2.20;;;;;;;-2.07;46.40;98909.38;3338116;29;20081;-71
2021/12/27 00:45:13;;;;;;;2.33;1.88;;;;;;;-2.06;46.25;98918.88;3338311;29;20208;-70
2021/12/27 00:46:54;;;;;;;1.90;1.48;;;;;;;-2.07;46.27;98912.00;3348772;29;20033;-70
2021/12/27 00:48:35;;;;;;;2.22;2.03;;;;;;;-2.06;46.50;98913.66;3347049;29;20033;-70
2021/12/27 00:50:16;;;;;;;2.47;1.90;;;;;;;-2.08;46.33;98902.53;3337051;29;20445;-69
2021/12/27 00:51:56;;;;;;;1.73;1.50;;;;;;;-2.07;46.26;98910.22;3338188;29;20510;-70
2021/12/27 00:53:37;;;;;;;4.55;2.38;;;;;;;-2.07;46.21;98904.16;3338097;29;20062;-70
2021/12/27 00:55:18;;;;;;;1.90;1.55;;;;;;;-2.08;46.15;98912.97;3338164;29;20073;-70
2021/12/27 00:56:59;;;;;;;1.50;1.35;;;;;;;-2.09;46.54;98917.38;3338393;29;20045;-69
2021/12/27 00:58:40;;;;;;;2.72;1.52;;;;;;;-2.11;46.07;98923.69;3339790;29;20034;-70
2021/12/27 01:00:25;;;;;;;2.03;1.50;;;;;;;-2.15;46.35;98923.09;3350977;29;20045;-69
2021/12/27 01:02:06;;;;;;;2.20;1.30;;;;;;;-2.18;45.94;98925.16;3350908;29;20548;-69
2021/12/27 01:03:46;;;;;;;2.75;1.92;;;;;;;-2.21;46.09;98929.69;3350345;29;20057;-70
2021/12/27 01:05:27;;;;;;;4.20;1.65;;;;;;;-2.26;45.97;98934.47;3344500;29;20037;-69
2021/12/27 01:07:09;;;;;;;2.22;2.03;;;;;;;-2.25;46.33;98940.50;3337889;29;20049;-71
2021/12/27 01:08:50;;;;;;;3.08;1.70;;;;;;;-2.27;46.01;98927.63;3338469;29;20081;-71
2021/12/27 01:12:49;;;;;;;2.67;1.50;;;;;;;-2.30;46.05;98935.69;3337913;29;20133;-70
2021/12/27 01:16:38;;;;;;;3.40;2.22;;;;;;;-2.33;46.23;98941.16;3332087;29;20148;-70
2021/12/27 01:18:20;;;;;;;3.38;1.75;;;;;;;-2.36;46.25;98949.25;3340249;29;20046;-69
2021/12/27 01:20:01;;;;;;;4.15;2.67;;;;;;;-2.36;45.97;98946.66;3341358;29;20394;-70
2021/12/27 01:21:41;;;;;;;3.03;1.77;;;;;;;-2.37;46.13;98946.81;3339213;29;20042;-72
2021/12/27 01:23:22;;;;;;;2.13;1.92;;;;;;;-2.37;46.04;98947.63;3337937;29;20525;-69
2021/12/27 01:25:06;;;;;;;3.05;1.92;;;;;;;-2.36;46.40;98951.88;3338945;29;20047;-70
2021/12/27 01:26:46;;;;;;;4.93;2.13;;;;;;;-2.34;46.22;98949.16;3337814;29;20045;-71
2021/12/27 01:28:27;;;;;;;3.08;1.40;;;;;;;-2.33;46.02;98964.66;3337702;29;20052;-70
2021/12/27 01:30:10;;;;;;;3.45;1.90;;;;;;;-2.32;46.09;98957.63;3338468;29;20046;-70
2021/12/27 01:31:51;;;;;;;2.63;1.50;;;;;;;-2.32;46.31;98957.63;3337951;29;20045;-70
2021/12/27 01:33:32;;;;;;;2.15;1.80;;;;;;;-2.32;46.64;98953.28;3338095;29;20478;-71
2021/12/27 01:35:13;;;;;;;1.77;1.48;;;;;;;-2.32;46.58;98958.50;3337502;29;20049;-70
2021/12/27 01:36:56;;;;;;;2.25;1.85;;;;;;;-2.30;46.49;98964.38;3337775;29;20399;-71
2021/12/27 01:38:40;;;;;;;1.88;1.40;;;;;;;-2.31;46.19;98947.09;3337299;29;20112;-69
2021/12/27 01:40:25;;;;;;;2.85;1.70;;;;;;;-2.31;46.37;98960.13;3338490;29;20054;-70
2021/12/27 01:42:06;;;;;;;2.50;2.10;;;;;;;-2.31;46.32;98959.31;3337626;29;20152;-70
2021/12/27 01:43:47;;;;;;;3.75;2.33;;;;;;;-2.32;46.65;98955.88;3337667;29;20053;-71
2021/12/27 01:45:27;;;;;;;4.00;1.75;;;;;;;-2.33;46.55;98954.22;3337607;29;20045;-71
2021/12/27 01:47:09;;;;;;;1.92;1.73;;;;;;;-2.32;46.45;98963.72;3337177;29;20528;-70
2021/12/27 01:48:55;;;;;;;3.42;2.08;;;;;;;-2.33;46.36;98964.66;3349233;29;20073;-70
2021/12/27 01:50:39;;;;;;;2.03;1.83;;;;;;;-2.33;46.74;98972.47;3339682;29;20045;-70
2021/12/27 01:52:19;;;;;;;2.83;2.00;;;;;;;-2.32;46.63;98963.72;3348890;29;20579;-70
2021/12/27 01:54:00;;;;;;;3.08;2.63;;;;;;;-2.31;46.46;98960.13;3339779;29;20057;-70
2021/12/27 01:55:41;;;;;;;2.33;1.73;;;;;;;-2.31;46.48;98965.34;3344526;29;20069;-71
2021/12/27 01:57:21;;;;;;;3.88;2.15;;;;;;;-2.31;46.59;98975.78;3350086;29;20127;-69
2021/12/27 01:59:02;;;;;;;2.47;1.60;;;;;;;-2.31;46.90;98977.59;3349243;29;20041;-71
2021/12/27 02:00:47;;;;;;;3.83;2.20;;;;;;;-2.31;46.50;98974.97;3347944;29;20542;-70
2021/12/27 02:02:28;;;;;;;2.88;2.28;;;;;;;-2.33;46.62;98979.50;3350306;29;20052;-69
2021/12/27 02:04:08;;;;;;;2.33;2.05;;;;;;;-2.32;46.67;98979.38;3348669;29;20093;-70
2021/12/27 02:05:49;;;;;;;4.03;1.95;;;;;;;-2.32;46.39;98981.13;3348157;29;20054;-69
2021/12/27 02:07:30;;;;;;;1.35;1.25;;;;;;;-2.34;46.35;98986.50;3349903;29;20425;-69
2021/12/27 02:09:10;;;;;;;2.78;1.60;;;;;;;-2.33;46.45;98985.53;3349859;29;20037;-71
2021/12/27 02:10:51;;;;;;;4.93;2.53;;;;;;;-2.32;46.40;98995.03;3347729;29;20065;-72
2021/12/27 02:12:32;;;;;;;3.17;2.17;;;;;;;-2.32;46.37;98989.81;3349838;29;20536;-70
2021/12/27 02:14:13;;;;;;;2.10;1.65;;;;;;;-2.32;46.29;98987.19;3349707;29;20100;-70
2021/12/27 02:15:54;;;;;;;1.80;1.60;;;;;;;-2.32;46.67;98988.97;3348426;29;20045;-70
2021/12/27 02:17:39;;;;;;;1.83;1.50;;;;;;;-2.33;46.45;98990.75;3344596;29;20038;-70
2021/12/27 02:19:20;;;;;;;2.90;2.00;;;;;;;-2.32;46.21;98994.19;3337386;29;20056;-71
2021/12/27 02:21:01;;;;;;;3.88;1.75;;;;;;;-2.32;46.65;99002.84;3340919;29;20077;-70
2021/12/27 02:22:43;;;;;;;2.88;2.03;;;;;;;-2.32;46.23;99008.06;3337048;29;20511;-70
2021/12/27 02:24:24;;;;;;;2.65;2.08;;;;;;;-2.35;46.42;98997.06;3335935;29;20130;-68
2021/12/27 02:26:05;;;;;;;2.33;2.13;;;;;;;-2.34;46.61;98996.94;3336780;29;20118;-69
2021/12/27 02:27:46;;;;;;;2.42;1.90;;;;;;;-2.35;46.36;98995.28;3337167;29;20050;-69
2021/12/27 02:29:26;;;;;;;3.13;1.75;;;;;;;-2.34;46.58;99004.75;3337109;29;20056;-69
2021/12/27 02:31:08;;;;;;;2.40;1.77;;;;;;;-2.34;46.58;99006.56;3350047;29;20132;-69
2021/12/27 02:32:50;;;;;;;2.22;1.60;;;;;;;-2.34;46.36;98989.09;3339559;29;20046;-69
2021/12/27 02:34:30;;;;;;;2.08;1.55;;;;;;;-2.31;46.53;98995.84;3337221;29;20125;-70
2021/12/27 02:36:13;;;;;;;3.05;2.20;;;;;;;-2.31;46.42;99004.50;3343897;29;20059;-70
2021/12/27 02:37:55;;;;;;;2.92;1.73;;;;;;;-2.31;46.60;99007.09;3348954;29;20162;-69
2021/12/27 02:39:36;;;;;;;2.17;1.70;;;;;;;-2.33;46.22;99003.78;3349002;29;20049;-69
2021/12/27 02:41:17;;;;;;;4.07;2.22;;;;;;;-2.35;46.44;99010.09;3345494;29;20071;-70
2021/12/27 02:43:07;;;;;;;2.33;1.98;;;;;;;-2.36;46.28;99009.28;3337031;29;20124;-69
2021/12/27 02:44:48;;;;;;;3.05;1.63;;;;;;;-2.35;46.23;99010.94;3336724;29;20141;-68
2021/12/27 02:46:28;;;;;;;1.58;1.40;;;;;;;-2.35;46.59;99010.94;3346459;29;20072;-68
2021/12/27 02:48:10;;;;;;;3.03;1.80;;;;;;;-2.35;46.56;99008.34;3349791;29;20544;-70
2021/12/27 02:49:51;;;;;;;5.82;2.35;;;;;;;-2.35;46.30;99026.59;3349928;29;20398;-70
2021/12/27 02:51:32;;;;;;;2.45;2.05;;;;;;;-2.34;46.49;99030.03;3342040;29;20050;-68
2021/12/27 02:53:13;;;;;;;6.38;1.83;;;;;;;-2.35;46.69;99031.81;3337335;29;20506;-69
2021/12/27 02:54:54;;;;;;;2.22;1.90;;;;;;;-2.34;46.49;99028.25;3337311;29;20041;-68
2021/12/27 02:56:35;;;;;;;6.13;2.30;;;;;;;-2.33;46.85;99035.09;3337664;29;20409;-69
2021/12/27 02:58:15;;;;;;;2.22;1.80;;;;;;;-2.34;46.42;99038.69;3349927;29;20045;-70
2021/12/27 02:59:57;;;;;;;3.33;1.98;;;;;;;-2.34;46.49;99033.47;3349722;29;20074;-69
2021/12/27 03:01:38;;;;;;;5.40;2.38;;;;;;;-2.35;46.85;99037.03;3344199;29;20581;-71
2021/12/27 03:03:20;;;;;;;2.72;2.28;;;;;;;-2.37;46.53;99038.94;3337137;29;20053;-71
2021/12/27 03:05:00;;;;;;;3.40;2.22;;;;;;;-2.38;46.56;99042.50;3337046;29;20046;-69
2021/12/27 03:06:41;;;;;;;4.22;2.00;;;;;;;-2.40;46.48;99041.81;3346737;29;20367;-69
2021/12/27 03:08:22;;;;;;;4.10;2.45;;;;;;;-2.39;47.05;99046.06;3349501;29;20053;-69
2021/12/27 03:10:04;;;;;;;3.28;2.15;;;;;;;-2.40;46.92;99049.66;3349423;29;20120;-70
2021/12/27 03:11:44;;;;;;;1.88;1.73;;;;;;;-2.41;46.41;99054.00;3346303;29;20045;-68
2021/12/27 03:13:26;;;;;;;2.13;1.92;;;;;;;-2.41;46.69;99058.41;3336888;29;20513;-70
2021/12/27 03:15:09;;;;;;;4.00;2.00;;;;;;;-2.41;46.79;99059.22;3336640;29;20141;-70
2021/12/27 03:16:50;;;;;;;4.75;1.98;;;;;;;-2.40;46.74;99057.47;3336785;29;20529;-69
2021/12/27 03:18:32;;;;;;;2.90;1.88;;;;;;;-2.38;46.96;99052.09;3336712;29;20046;-70
2021/12/27 03:20:13;;;;;;;3.55;1.98;;;;;;;-2.37;46.66;99059.81;3343392;29;20084;-70
2021/12/27 03:21:54;;;;;;;3.90;1.90;;;;;;;-2.37;47.10;99065.03;3347944;29;20056;-71
2021/12/27 03:23:37;;;;;;;2.83;1.92;;;;;;;-2.37;46.67;99065.03;3349731;29;20048;-71
2021/12/27 03:25:20;;;;;;;1.98;1.60;;;;;;;-2.36;46.78;99065.84;3348884;29;20045;-70
2021/12/27 03:27:01;;;;;;;3.72;2.40;;;;;;;-2.35;46.69;99064.91;3350085;29;20154;-71
2021/12/27 03:28:42;;;;;;;3.60;2.05;;;;;;;-2.34;46.68;99071.78;3351823;29;20076;-69
2021/12/27 03:30:24;;;;;;;2.83;1.95;;;;;;;-2.34;47.17;99077.81;3351916;29;20046;-69
2021/12/27 03:32:05;;;;;;;4.97;2.70;;;;;;;-2.35;47.06;99076.19;3341613;29;20165;-70
2021/12/27 03:33:46;;;;;;;3.65;1.95;;;;;;;-2.32;46.63;99078.53;3338853;29;20046;-70
2021/12/27 03:35:34;;;;;;;4.00;2.10;;;;;;;-2.31;46.76;99085.41;3344383;29;20052;-69
2021/12/27 03:37:15;;;;;;;2.17;1.70;;;;;;;-2.31;47.12;99085.41;3351908;29;20394;-70
2021/12/27 03:38:56;;;;;;;3.97;2.40;;;;;;;-2.31;46.72;99085.41;3352383;29;20453;-70
2021/12/27 03:40:38;;;;;;;5.18;2.13;;;;;;;-2.30;47.05;99091.44;3346745;29;20041;-70
2021/12/27 03:42:19;;;;;;;2.47;2.28;;;;;;;-2.30;46.91;99104.47;3339889;29;20144;-69
2021/12/27 03:44:00;;;;;;;2.30;2.10;;;;;;;-2.32;47.03;99102.03;3338964;29;20046;-70
2021/12/27 03:45:40;;;;;;;2.78;2.45;;;;;;;-2.34;46.84;99101.31;3338852;29;20049;-69
2021/12/27 03:47:21;;;;;;;2.88;2.10;;;;;;;-2.33;47.07;99095.13;3339486;29;20052;-71
2021/12/27 03:49:02;;;;;;;4.15;2.15;;;;;;;-2.32;47.11;99090.72;3339127;29;20064;-70
2021/12/27 03:50:43;;;;;;;7.32;2.10;;;;;;;-2.32;47.38;99102.03;3338951;29;20117;-69
2021/12/27 03:52:23;;;;;;;2.25;1.95;;;;;;;-2.31;47.22;99111.50;3339727;29;20046;-70
2021/12/27 03:54:04;;;;;;;2.75;2.05;;;;;;;-2.30;47.18;99109.69;3338999;29;20545;-72
2021/12/27 03:55:45;;;;;;;3.13;2.05;;;;;;;-2.32;47.29;99104.63;3344682;29;20045;-70
2021/12/27 03:57:25;;;;;;;3.13;2.40;;;;;;;-2.29;47.23;99112.19;3351652;29;20097;-70
2021/12/27 03:59:22;;;;;;;3.60;2.40;;;;;;;-2.28;47.26;99106.00;3351627;29;20078;-69
2021/12/27 04:01:16;;;;;;;3.25;2.03;;;;;;;-2.26;47.26;99117.16;3351789;29;20049;-71
2021/12/27 04:02:59;;;;;;;4.35;2.53;;;;;;;-2.28;47.35;99124.28;3349108;29;20049;-71
2021/12/27 04:04:41;;;;;;;3.40;2.00;;;;;;;-2.27;47.49;99123.34;3351280;29;20101;-70
2021/12/27 04:06:24;;;;;;;3.42;2.50;;;;;;;-2.27;47.07;99119.88;3343433;29;20042;-71
2021/12/27 04:08:09;;;;;;;4.28;1.98;;;;;;;-2.26;47.34;99125.00;3338513;29;20041;-72
2021/12/27 04:09:50;;;;;;;1.80;1.67;;;;;;;-2.25;47.49;99129.25;3338860;29;20136;-71
2021/12/27 04:11:31;;;;;;;4.18;2.40;;;;;;;-2.26;47.34;99137.22;3338593;29;20422;-71
2021/12/27 04:13:12;;;;;;;5.35;2.60;;;;;;;-2.25;47.40;99136.25;3339326;29;20046;-69
2021/12/27 04:14:53;;;;;;;4.40;2.50;;;;;;;-2.24;47.62;99135.31;3338124;29;20141;-70
2021/12/27 04:16:34;;;;;;;3.47;1.80;;;;;;;-2.23;47.28;99137.78;3338552;29;20042;-70
2021/12/27 04:18:16;;;;;;;2.60;1.98;;;;;;;-2.21;47.21;99143.72;3338929;29;20061;-68
2021/12/27 04:19:57;;;;;;;;;;;;;;;-2.10;47.08;99142.00;3339121;29;20053;-70
2021/12/27 04:21:37;;;;;;;2.70;1.70;;;;;;;-2.14;47.05;99153.63;3338460;29;19924;-69
2021/12/27 04:23:18;;;;;;;3.38;2.50;;;;;;;-2.14;47.39;99144.03;3339174;29;20136;-70
2021/12/27 04:25:03;;;;;;;4.10;2.53;;;;;;;-2.14;47.50;99143.19;3337335;29;20053;-68
2021/12/27 04:26:44;;;;;;;3.80;2.17;;;;;;;-2.16;47.28;99153.78;3338483;29;20069;-70
2021/12/27 04:28:25;;;;;;;3.15;2.53;;;;;;;-2.17;47.52;99159.94;3338732;29;20106;-71
2021/12/27 04:30:06;;;;;;;3.17;2.88;;;;;;;-2.17;47.34;99139.03;3338429;29;20482;-72
2021/12/27 04:31:46;;;;;;;2.97;1.75;;;;;;;-2.17;47.66;99154.72;3350051;29;20444;-72
2021/12/27 04:33:27;;;;;;;3.40;2.38;;;;;;;-2.16;47.39;99160.78;3348841;29;20402;-70
2021/12/27 04:35:08;;;;;;;4.63;2.60;;;;;;;-2.17;47.61;99154.72;3350986;29;20046;-69
2021/12/27 04:36:49;;;;;;;4.45;2.58;;;;;;;-2.16;47.74;99155.56;3337383;29;20049;-72
2021/12/27 04:38:30;;;;;;;3.25;2.45;;;;;;;-2.17;47.66;99161.72;3347913;29;20045;-71
2021/12/27 04:40:12;;;;;;;2.75;2.25;;;;;;;-2.16;47.43;99160.78;3348063;29;20133;-70
2021/12/27 04:41:53;;;;;;;;;;;;;;;-2.05;47.80;99163.31;3345888;29;20498;-71
2021/12/27 04:43:34;;;;;;;2.97;2.65;;;;;;;-2.11;47.58;99158.63;3349684;29;19959;-70
2021/12/27 04:45:16;;;;;;;2.90;2.08;;;;;;;-2.11;47.68;99159.44;3350618;29;20046;-70
2021/12/27 04:46:57;;;;;;;3.30;2.30;;;;;;;-2.13;47.43;99157.91;3351643;29;20137;-70
2021/12/27 04:48:37;;;;;;;4.63;3.15;;;;;;;-2.12;47.54;99173.44;3351583;29;20042;-71
2021/12/27 04:50:18;;;;;;;4.35;3.10;;;;;;;-2.10;47.95;99171.53;3351535;29;20056;-70
2021/12/27 04:51:59;;;;;;;4.65;2.38;;;;;;;-2.10;47.64;99170.72;3351352;29;20050;-70
2021/12/27 04:53:39;;;;;;;4.10;2.03;;;;;;;-2.09;47.22;99169.75;3346084;29;20045;-70
2021/12/27 04:55:22;;;;;;;3.47;1.95;;;;;;;-2.12;47.57;99162.16;3350538;29;20041;-68
2021/12/27 04:57:03;;;;;;;5.72;2.95;;;;;;;-2.10;47.65;99183.75;3351579;29;20052;-70
2021/12/27 04:58:46;;;;;;;4.40;2.88;;;;;;;-2.09;47.83;99183.66;3351534;29;20037;-70
2021/12/27 05:00:27;;;;;;;4.78;2.83;;;;;;;-2.10;47.47;99175.94;3351285;29;20050;-69
2021/12/27 05:02:09;;;;;;;3.53;2.55;;;;;;;-2.11;47.50;99172.50;3347292;29;20033;-68
2021/12/27 05:03:50;;;;;;;3.25;2.45;;;;;;;-2.09;47.49;99190.63;3351360;29;20577;-70
2021/12/27 05:05:31;;;;;;;4.80;2.55;;;;;;;-2.08;47.47;99189.69;3350652;29;20060;-71
2021/12/27 05:07:12;;;;;;;3.42;2.75;;;;;;;-2.08;47.64;99189.69;3349976;29;20126;-70
2021/12/27 05:08:53;;;;;;;3.42;2.45;;;;;;;-2.08;47.45;99185.28;3351728;29;20038;-69
2021/12/27 05:10:35;;;;;;;3.78;2.30;;;;;;;-2.09;47.68;99188.88;3347271;29;20053;-74
2021/12/27 05:12:16;;;;;;;3.22;2.17;;;;;;;-2.05;47.41;99199.88;3342385;29;20064;-73
2021/12/27 05:13:56;;;;;;;3.28;2.47;;;;;;;-2.06;47.82;99204.28;3341553;29;20537;-71
2021/12/27 05:15:37;;;;;;;3.35;2.60;;;;;;;-2.04;47.52;99206.75;3341203;29;20045;-73
2021/12/27 05:17:18;;;;;;;3.28;2.20;;;;;;;-2.04;47.81;99212.81;3338903;29;20149;-72
2021/12/27 05:18:59;;;;;;;4.47;2.63;;;;;;;-2.03;47.60;99214.47;3338290;29;20602;-71
2021/12/27 05:20:39;;;;;;;2.78;2.13;;;;;;;-2.04;47.34;99204.97;3338111;29;20079;-71
2021/12/27 05:22:20;;;;;;;2.42;2.00;;;;;;;-2.01;47.64;99214.34;3338403;29;20050;-72
2021/12/27 05:24:01;;;;;;;4.20;2.50;;;;;;;-2.00;47.74;99206.38;3338193;29;20077;-72
2021/12/27 05:25:41;;;;;;;3.60;2.40;;;;;;;-1.99;47.85;99215.03;3339055;29;20044;-72
2021/12/27 05:27:22;;;;;;;7.20;3.40;;;;;;;-1.98;47.75;99216.69;3337939;29;20105;-71
2021/12/27 05:29:03;;;;;;;3.67;2.75;;;;;;;-1.99;47.53;99220.25;3338059;29;20047;-72
2021/12/27 05:30:47;;;;;;;4.50;2.85;;;;;;;-1.97;47.78;99228.78;3338429;29;20053;-71
2021/12/27 05:32:28;;;;;;;6.50;2.40;;;;;;;-1.98;47.44;99227.97;3337312;29;20042;-76
2021/12/27 05:34:10;;;;;;;3.63;2.45;;;;;;;-1.96;47.45;99230.47;3337578;29;20535;-75
2021/12/27 05:35:51;;;;;;;3.75;2.72;;;;;;;-1.95;47.35;99236.50;3339339;29;20042;-76
2021/12/27 05:37:32;;;;;;;6.32;3.78;;;;;;;-1.95;47.72;99242.56;3339193;29;20053;-78
2021/12/27 05:39:16;;;;;;;3.90;2.22;;;;;;;-1.95;47.47;99241.72;3337657;29;20190;-73
2021/12/27 05:40:57;;;;;;;3.83;2.65;;;;;;;-1.97;47.09;99252.28;3342144;29;20091;-75
2021/12/27 05:42:38;;;;;;;3.53;2.45;;;;;;;-1.97;47.21;99253.13;3349415;29;20045;-72
2021/12/27 05:44:18;;;;;;;5.18;2.70;;;;;;;-1.97;47.65;99260.13;3350066;29;20048;-70
2021/12/27 05:46:02;;;;;;;3.05;2.42;;;;;;;-1.97;47.44;99260.94;3339992;29;20509;-71
2021/12/27 05:47:44;;;;;;;5.15;2.70;;;;;;;-1.96;47.25;99267.03;3337661;29;20053;-70
2021/12/27 05:49:25;;;;;;;3.70;3.15;;;;;;;-1.94;47.43;99272.09;3337678;29;20058;-71
2021/12/27 05:51:05;;;;;;;3.55;2.35;;;;;;;-1.93;47.13;99277.22;3336539;29;20114;-72
2021/12/27 05:52:46;;;;;;;3.13;2.30;;;;;;;-1.93;47.27;99277.22;3337520;29;20052;-72
2021/12/27 05:54:27;;;;;;;7.82;3.47;;;;;;;-1.95;47.02;99268.66;3337237;29;20470;-72
2021/12/27 05:56:07;;;;;;;5.10;2.80;;;;;;;-1.94;47.11;99280.75;3338170;29;20114;-72
2021/12/27 05:57:48;;;;;;;4.18;2.42;;;;;;;-1.95;47.18;99280.91;3344891;29;20045;-72
2021/12/27 05:59:29;;;;;;;3.72;2.50;;;;;;;-1.96;47.05;99277.47;3349976;29;20089;-72
2021/12/27 06:01:09;;;;;;;3.35;3.05;;;;;;;-1.97;47.05;99281.00;3348932;29;20069;-73
2021/12/27 06:02:54;;;;;;;5.63;2.40;;;;;;;-1.99;47.26;99283.78;3349070;29;20042;-70
2021/12/27 06:04:35;;;;;;;3.28;2.20;;;;;;;-1.98;47.27;99297.66;3349397;29;20420;-71
2021/12/27 06:06:16;;;;;;;10.60;2.88;;;;;;;-1.99;47.37;99290.75;3348101;29;20190;-71
2021/12/27 06:07:57;;;;;;;4.55;2.80;;;;;;;-2.01;47.29;99296.13;3349422;29;20474;-72
2021/12/27 06:09:37;;;;;;;3.95;2.78;;;;;;;-2.03;47.12;99286.75;3347594;29;20076;-72
2021/12/27 06:11:19;;;;;;;4.70;3.20;;;;;;;-2.07;47.01;99293.97;3349939;29;20398;-72
2021/12/27 06:12:59;;;;;;;5.47;2.75;;;;;;;-2.07;47.16;99301.00;3350043;29;20037;-72
2021/12/27 06:14:40;;;;;;;8.30;2.92;;;;;;;-2.09;46.95;99301.13;3350192;29;20064;-74
2021/12/27 06:16:21;;;;;;;2.85;2.35;;;;;;;-2.10;47.23;99301.25;3341184;29;20156;-72
2021/12/27 06:18:02;;;;;;;4.68;2.10;;;;;;;-2.11;46.92;99304.81;3347351;29;20041;-76
2021/12/27 06:19:43;;;;;;;4.35;2.80;;;;;;;-2.11;47.03;99300.41;3348824;29;20136;-71
2021/12/27 06:21:25;;;;;;;4.80;2.80;;;;;;;-2.10;47.01;99316.91;3345128;29;20072;-73
2021/12/27 06:23:05;;;;;;;;;;;;;;;-1.99;47.15;99309.03;3337769;29;20042;-71
2021/12/27 06:24:46;;;;;;;4.18;2.60;;;;;;;-2.10;46.78;99302.06;3337009;29;20375;-71
2021/12/27 06:26:27;;;;;;;3.00;2.72;;;;;;;-2.09;46.79;99315.94;3336940;29;20082;-72
2021/12/27 06:28:08;;;;;;;2.58;2.30;;;;;;;-2.11;46.70;99310.84;3346845;29;20073;-72
2021/12/27 06:29:49;;;;;;;3.30;2.20;;;;;;;-2.11;46.93;99316.06;3349355;29;20417;-72
2021/12/27 06:31:30;;;;;;;5.25;3.20;;;;;;;-2.10;47.13;99317.72;3349771;29;20054;-71
2021/12/27 06:33:10;;;;;;;4.47;2.72;;;;;;;-2.08;47.09;99320.22;3349668;29;20442;-73
2021/12/27 06:34:52;;;;;;;6.53;3.05;;;;;;;-2.09;46.95;99327.22;3342679;29;20056;-74
2021/12/27 06:36:32;;;;;;;3.37;2.47;;;;;;;-2.08;46.81;99326.28;3336519;29;20072;-74
2021/12/27 06:38:13;;;;;;;3.10;1.85;;;;;;;-2.07;47.04;99327.91;3337368;29;20393;-73
2021/12/27 06:39:54;;;;;;;8.18;2.60;;;;;;;-2.05;47.48;99340.84;3337188;29;20046;-72
2021/12/27 06:41:34;;;;;;;7.50;3.08;;;;;;;-2.04;47.10;99337.28;3336861;29;20558;-73
2021/12/27 06:43:15;;;;;;;2.38;2.00;;;;;;;-2.03;46.92;99339.78;3346925;29;20041;-72
2021/12/27 06:44:56;;;;;;;4.18;2.47;;;;;;;-2.03;46.63;99336.34;3361351;29;20546;-74
2021/12/27 06:46:36;;;;;;;4.40;2.72;;;;;;;-2.02;47.11;99343.22;3347024;29;20427;-73
2021/12/27 06:48:17;;;;;;;4.57;2.97;;;;;;;-2.02;47.23;99341.44;3339601;29;20159;-73
2021/12/27 06:49:58;;;;;;;5.32;2.55;;;;;;;-1.99;47.02;99345.56;3349708;29;20570;-73
2021/12/27 06:51:39;;;;;;;7.60;2.88;;;;;;;-2.02;47.16;99338.81;3349422;29;20046;-73
2021/12/27 06:53:20;;;;;;;4.25;2.22;;;;;;;-1.99;47.16;99327.31;3349344;29;20068;-71
2021/12/27 06:55:00;;;;;;;2.88;2.25;;;;;;;-2.00;47.20;99334.31;3348635;29;20147;-72
2021/12/27 06:56:41;;;;;;;5.05;2.75;;;;;;;-2.01;47.16;99331.84;3348614;29;20046;-71
2021/12/27 06:58:22;;;;;;;3.05;2.45;;;;;;;-2.01;47.30;99344.91;3351135;29;20128;-73
2021/12/27 07:00:06;;;;;;;4.75;2.88;;;;;;;-2.01;47.27;99329.22;3339682;29;20058;-73
2021/12/27 07:01:47;;;;;;;4.57;2.90;;;;;;;-2.00;47.12;99336.94;3337196;29;20108;-73
2021/12/27 07:03:28;;;;;;;4.15;2.85;;;;;;;-2.00;47.12;99344.75;3346783;29;20041;-73
2021/12/27 07:05:10;;;;;;;3.53;2.45;;;;;;;-2.02;47.12;99344.03;3346544;29;20058;-71
2021/12/27 07:06:50;;;;;;;7.40;3.42;;;;;;;-2.01;47.03;99331.84;3339750;29;20550;-73
2021/12/27 07:08:32;;;;;;;6.10;2.50;;;;;;;-2.01;47.11;99348.34;3343613;29;20053;-71
2021/12/27 07:10:14;;;;;;;4.13;2.78;;;;;;;-2.00;46.82;99347.38;3351613;29;20034;-73
2021/12/27 07:11:55;;;;;;;4.07;2.95;;;;;;;-1.99;46.76;99350.81;3346331;29;20049;-73
2021/12/27 07:13:36;;;;;;;6.85;2.55;;;;;;;-2.00;46.89;99357.81;3347947;29;20430;-73
2021/12/27 07:15:17;;;;;;;8.18;2.92;;;;;;;-2.00;46.41;99352.59;3353359;29;20050;-72
2021/12/27 07:16:58;;;;;;;4.80;2.17;;;;;;;-2.03;46.76;99355.44;3343339;29;20050;-72
2021/12/27 07:18:39;;;;;;;4.82;2.67;;;;;;;-2.07;46.28;99358.44;3340410;29;20084;-71
2021/12/27 07:20:19;;;;;;;2.92;2.05;;;;;;;-2.07;46.27;99347.97;3341583;29;20417;-72
2021/12/27 07:22:00;;;;;;;3.58;2.50;;;;;;;-2.09;46.25;99360.31;3350686;29;20077;-72
2021/12/27 07:23:41;;;;;;;6.05;3.17;;;;;;;-2.08;46.68;99356.78;3344127;29;20045;-73
2021/12/27 07:25:21;;;;;;;4.53;2.78;;;;;;;-2.09;46.47;99353.34;3338748;29;20041;-74
2021/12/27 07:27:02;;;;;;;4.72;2.72;;;;;;;-2.07;46.19;99355.81;3338774;29;20042;-75
2021/12/27 07:28:43;;;;;;;2.40;2.20;;;;;;;-2.08;46.12;99341.13;3341551;29;20041;-72
2021/12/27 07:30:24;;;;;;;5.75;2.20;;;;;;;-2.07;46.41;99361.03;3326532;29;20133;-74
2021/12/27 07:32:06;;;;;;;2.88;2.67;;;;;;;-2.05;46.22;99366.97;3337109;29;20073;-73
2021/12/27 07:33:47;;;;;;;3.72;2.72;;;;;;;-2.03;46.26;99367.69;3348445;29;20058;-73
2021/12/27 07:35:28;;;;;;;3.10;2.80;;;;;;;-2.01;45.95;99369.22;3351451;29;20476;-72
2021/12/27 07:37:08;;;;;;;4.88;2.45;;;;;;;-1.97;46.15;99370.63;3349063;29;20049;-73
2021/12/27 07:38:49;;;;;;;3.20;2.47;;;;;;;-1.94;46.24;99371.31;3343131;29;20078;-74
2021/12/27 07:40:30;;;;;;;7.05;3.65;;;;;;;-1.91;46.00;99382.38;3353375;29;20073;-72
2021/12/27 07:42:11;;;;;;;4.35;2.63;;;;;;;-1.88;46.13;99378.69;3346911;29;20113;-73
2021/12/27 07:43:52;;;;;;;3.72;2.60;;;;;;;-1.85;46.19;99376.66;3351381;29;20450;-74
2021/12/27 07:45:33;;;;;;;4.70;2.60;;;;;;;-1.81;45.71;99375.47;3351340;29;20044;-73
2021/12/27 07:47:14;;;;;;;4.43;2.20;;;;;;;-1.80;46.05;99376.28;3350620;29;20068;-73
2021/12/27 07:48:55;;;;;;;3.85;2.67;;;;;;;-1.79;45.74;99386.59;3337675;29;20125;-74
2021/12/27 07:50:36;;;;;;;4.28;2.50;;;;;;;-1.78;45.91;99388.28;3340656;29;20045;-74
2021/12/27 07:52:17;;;;;;;3.83;2.67;;;;;;;-1.76;45.40;99386.38;3338815;29;20129;-73
2021/12/27 07:53:58;;;;;;;4.03;3.33;;;;;;;-1.74;45.60;99382.81;3348997;29;20089;-73
2021/12/27 07:55:38;;;;;;;3.53;2.25;;;;;;;-1.71;45.43;99396.44;3338908;29;20078;-73
2021/12/27 07:57:19;;;;;;;2.75;2.25;;;;;;;-1.69;45.32;99404.97;3338790;29;20532;-71
2021/12/27 07:59:04;;;;;;;4.88;2.55;;;;;;;-1.66;45.61;99398.69;3339599;29;20141;-72
2021/12/27 08:00:50;;;;;;;4.35;2.63;;;;;;;-1.64;45.57;99399.41;3356533;29;20041;-73
2021/12/27 08:02:30;;;;;;;3.58;2.40;;;;;;;-1.63;45.38;99414.94;3352649;29;20149;-72